Time;durP1;ratioP1;P1;durP2;ratioP2;P2;SDS_P1;SDS_P2;PMS_P1;PMS_P2;Temp;Humidity;BMP_temperature;BMP_pressure;BME280_temperature;BME280_humidity;BME280_pressure;Samples;Min_cycle;Max_cycle;Signal;HPM_P1;HPM_P2
2022/12/24 00:01:47;;;;;;;11.35;2.60;;;;;;;12.70;67.73;99255.03;5014609;28;20061;-61
2022/12/24 00:04:15;;;;;;;11.55;3.28;;;;;;;12.74;67.43;99241.97;5014096;28;20058;-61
2022/12/24 00:06:42;;;;;;;12.38;3.40;;;;;;;12.69;66.78;99250.63;5013225;28;20054;-61
2022/12/24 00:09:09;;;;;;;11.15;3.03;;;;;;;12.69;67.49;99247.84;5014523;28;20050;-62
2022/12/24 00:11:37;;;;;;;10.63;2.97;;;;;;;12.73;68.47;99255.13;5012910;28;20060;-61
2022/12/24 00:14:04;;;;;;;15.50;4.43;;;;;;;12.72;68.03;99278.66;5015085;28;20396;-61
2022/12/24 00:16:33;;;;;;;13.00;3.22;;;;;;;12.65;68.40;99269.28;5014774;28;20065;-62
2022/12/24 00:19:00;;;;;;;12.10;3.42;;;;;;;12.71;69.29;99279.84;5014641;28;20117;-61
2022/12/24 00:21:27;;;;;;;12.43;3.20;;;;;;;12.70;69.07;99282.97;5014341;28;20046;-62
2022/12/24 00:23:54;;;;;;;13.30;3.47;;;;;;;12.72;69.02;99297.41;5012820;28;20065;-62
2022/12/24 00:26:22;;;;;;;12.02;3.45;;;;;;;12.70;68.91;99291.34;5012010;28;20054;-62
2022/12/24 00:28:50;;;;;;;17.27;4.15;;;;;;;12.60;68.76;99301.09;5013034;28;20058;-62
2022/12/24 00:31:18;;;;;;;15.93;3.95;;;;;;;12.61;68.04;99304.69;5015083;28;20056;-62
2022/12/24 00:33:47;;;;;;;15.68;4.30;;;;;;;12.60;68.92;99306.69;5012633;28;20478;-63
2022/12/24 00:36:15;;;;;;;16.40;4.00;;;;;;;12.58;68.69;99304.22;5013473;28;20065;-62
2022/12/24 00:38:43;;;;;;;12.43;3.58;;;;;;;12.58;69.28;99321.00;5013866;28;20053;-63
2022/12/24 00:41:23;;;;;;;11.48;4.32;;;;;;;12.65;69.20;99322.38;5011184;28;20054;-62
2022/12/24 00:43:51;;;;;;;15.77;4.03;;;;;;;12.56;68.13;99312.16;5014954;28;20050;-62
2022/12/24 00:46:18;;;;;;;15.77;3.75;;;;;;;12.50;68.55;99329.53;5014469;28;20482;-62
2022/12/24 00:48:47;;;;;;;14.57;4.50;;;;;;;12.55;68.07;99323.69;5013446;28;20509;-62
2022/12/24 00:51:14;;;;;;;15.75;3.90;;;;;;;12.43;68.15;99321.75;5013435;28;20069;-62
2022/12/24 00:53:42;;;;;;;12.40;3.47;;;;;;;12.53;67.53;99317.63;5010208;28;20050;-62
2022/12/24 00:56:09;;;;;;;13.48;4.88;;;;;;;12.53;67.76;99334.38;4995235;28;20065;-62
2022/12/24 00:58:37;;;;;;;12.52;4.07;;;;;;;12.53;67.04;99331.59;4994674;28;20051;-62
2022/12/24 01:01:05;;;;;;;20.73;4.93;;;;;;;12.56;66.88;99334.50;4995180;28;20476;-62
2022/12/24 01:03:36;;;;;;;16.27;4.40;;;;;;;12.55;67.00;99341.25;5011823;28;20054;-62
2022/12/24 01:06:05;;;;;;;14.38;4.10;;;;;;;12.58;67.34;99348.94;5014151;28;20058;-63
2022/12/24 01:08:33;;;;;;;14.30;4.05;;;;;;;12.58;66.27;99373.25;5013425;28;20438;-64
2022/12/24 01:11:00;;;;;;;13.73;4.30;;;;;;;12.48;66.48;99352.22;5012056;28;20116;-63
2022/12/24 01:13:28;;;;;;;18.38;4.18;;;;;;;12.53;65.98;99357.53;5014612;28;20046;-63
2022/12/24 01:15:56;;;;;;;13.32;4.40;;;;;;;12.45;66.14;99366.91;5014011;28;20053;-63
2022/12/24 01:18:24;;;;;;;12.55;2.85;;;;;;;12.44;66.03;99361.66;5012462;28;20058;-63
2022/12/24 01:20:57;;;;;;;17.90;3.70;;;;;;;12.49;65.32;99365.00;5008843;28;20061;-63
2022/12/24 01:23:27;;;;;;;13.13;3.75;;;;;;;12.51;65.62;99379.44;5000724;28;20061;-63
2022/12/24 01:25:55;;;;;;;16.30;3.70;;;;;;;12.46;65.93;99376.09;5013371;28;20061;-63
2022/12/24 01:28:22;;;;;;;12.05;4.03;;;;;;;12.47;65.70;99384.09;5013977;28;20479;-62
2022/12/24 01:30:49;;;;;;;14.40;3.72;;;;;;;12.41;65.05;99387.50;5014287;28;20054;-62
2022/12/24 01:33:16;;;;;;;17.75;4.20;;;;;;;12.51;65.48;99385.00;5013734;28;20045;-62
2022/12/24 01:35:44;;;;;;;16.73;3.85;;;;;;;12.49;64.59;99401.31;5013901;28;20056;-62
2022/12/24 01:38:12;;;;;;;16.30;4.00;;;;;;;12.49;64.90;99401.31;5006765;28;20054;-63
2022/12/24 01:43:30;;;;;;;13.25;4.13;;;;;;;12.55;65.20;99404.69;5013975;28;20057;-62
2022/12/24 01:45:59;;;;;;;14.77;4.15;;;;;;;12.54;64.66;99403.06;5013519;28;20317;-62
2022/12/24 01:48:34;;;;;;;20.27;4.35;;;;;;;12.56;64.80;99415.50;5014171;28;20069;-62
2022/12/24 01:51:07;;;;;;;21.88;5.18;;;;;;;12.32;64.90;99415.56;5013359;28;20061;-62
2022/12/24 01:53:38;;;;;;;14.77;4.00;;;;;;;12.45;64.88;99419.13;5011924;28;20065;-62
2022/12/24 01:56:11;;;;;;;12.80;3.83;;;;;;;12.45;65.25;99419.13;5013556;28;20053;-62
2022/12/24 01:58:43;;;;;;;18.63;4.88;;;;;;;12.30;65.64;99417.88;5013694;28;20060;-61
2022/12/24 02:01:12;;;;;;;17.63;4.25;;;;;;;12.41;65.42;99416.25;5012669;28;20050;-62
2022/12/24 02:03:39;;;;;;;19.63;4.03;;;;;;;12.43;65.40;99413.09;5013040;28;20046;-63
2022/12/24 02:06:15;;;;;;;21.83;4.88;;;;;;;12.37;65.60;99420.91;5013055;28;20056;-62
2022/12/24 02:08:42;;;;;;;19.20;4.50;;;;;;;12.37;65.28;99430.09;4999881;28;20057;-62
2022/12/24 02:11:18;;;;;;;20.27;4.57;;;;;;;12.28;65.43;99436.97;4994680;28;20046;-62
2022/12/24 02:13:50;;;;;;;15.43;4.40;;;;;;;12.36;65.84;99436.84;4993528;28;20507;-62
2022/12/24 02:16:31;;;;;;;17.02;4.28;;;;;;;12.25;65.45;99454.44;4993735;28;20054;-62
2022/12/24 02:19:09;;;;;;;14.88;3.97;;;;;;;12.29;65.68;99452.56;4993480;28;20057;-62
2022/12/24 02:21:53;;;;;;;17.27;3.75;;;;;;;12.27;65.74;99452.13;4996346;28;20049;-62
2022/12/24 02:25:05;;;;;;;20.08;5.25;;;;;;;12.32;65.11;99454.66;5013236;28;20045;-62
2022/12/24 02:27:47;;;;;;;19.05;4.50;;;;;;;12.25;65.43;99449.66;4952098;29;20095;-62
2022/12/24 02:30:19;;;;;;;18.52;5.03;;;;;;;12.20;65.85;99455.50;5004352;28;20054;-62
2022/12/24 02:33:00;;;;;;;16.50;4.68;;;;;;;12.31;65.68;99475.38;5012321;28;20065;-62
2022/12/24 02:35:38;;;;;;;14.60;4.05;;;;;;;12.18;65.47;99477.38;5012768;28;20061;-62
2022/12/24 02:38:13;;;;;;;11.70;4.00;;;;;;;12.21;64.92;99484.22;4995282;28;20487;-62
2022/12/24 02:40:46;;;;;;;15.82;4.38;;;;;;;12.22;65.45;99480.25;4993167;28;20054;-63
2022/12/24 02:43:20;;;;;;;15.07;4.68;;;;;;;12.20;64.98;99491.78;4993211;28;20098;-62
2022/12/24 02:45:57;;;;;;;16.92;5.00;;;;;;;12.27;65.27;99483.63;4992657;28;20046;-62
2022/12/24 02:48:26;;;;;;;19.55;4.72;;;;;;;12.17;64.65;99490.50;4993549;28;20511;-62
2022/12/24 02:51:03;;;;;;;13.43;4.00;;;;;;;12.16;65.29;99502.84;4998155;28;20061;-62
2022/12/24 02:53:31;;;;;;;13.45;3.75;;;;;;;12.13;64.98;99503.50;5012532;28;20053;-62
2022/12/24 02:56:15;;;;;;;13.30;3.83;;;;;;;12.17;65.26;99503.63;5012592;28;20462;-62
2022/12/24 02:58:57;;;;;;;20.67;4.45;;;;;;;12.10;65.14;99503.41;5012265;28;20061;-62
2022/12/24 03:01:41;;;;;;;24.90;4.43;;;;;;;12.05;64.69;99504.44;5009785;28;20065;-62
2022/12/24 03:04:19;;;;;;;14.65;4.03;;;;;;;11.99;65.75;99508.66;5012524;28;20068;-62
2022/12/24 03:07:00;;;;;;;16.38;4.63;;;;;;;12.02;65.19;99505.16;5006404;28;20061;-62
2022/12/24 03:09:37;;;;;;;15.18;4.63;;;;;;;12.04;65.38;99504.81;5007954;28;20058;-62
2022/12/24 03:12:12;;;;;;;17.65;4.07;;;;;;;11.99;65.69;99503.06;5012487;28;20050;-62
2022/12/24 03:14:40;;;;;;;16.48;4.35;;;;;;;12.03;65.19;99509.56;5013857;28;20415;-62
2022/12/24 03:17:10;;;;;;;17.35;4.53;;;;;;;12.09;65.75;99512.94;5016606;28;20049;-62
2022/12/24 03:19:38;;;;;;;18.02;5.20;;;;;;;12.09;65.97;99519.34;5015549;28;20049;-62
2022/12/24 03:22:10;;;;;;;15.90;4.40;;;;;;;12.11;65.58;99505.84;5014202;28;20053;-61
2022/12/24 03:24:38;;;;;;;15.27;4.05;;;;;;;12.16;65.72;99513.19;5015952;28;20046;-62
2022/12/24 03:27:08;;;;;;;21.42;4.93;;;;;;;12.18;65.32;99517.25;5016055;28;20053;-62
2022/12/24 03:29:36;;;;;;;19.88;5.57;;;;;;;12.17;65.64;99523.19;5016305;28;20434;-62
2022/12/24 03:32:04;;;;;;;17.98;4.90;;;;;;;12.26;65.50;99517.47;5016103;28;20064;-62
2022/12/24 03:34:35;;;;;;;13.35;4.35;;;;;;;12.26;66.42;99511.91;5014806;28;20050;-62
2022/12/24 03:37:03;;;;;;;24.48;5.75;;;;;;;12.28;65.59;99521.53;5014548;28;20053;-61
2022/12/24 03:39:30;;;;;;;15.20;4.28;;;;;;;12.24;65.92;99536.56;5016176;28;20053;-62
2022/12/24 03:41:59;;;;;;;16.85;3.95;;;;;;;12.33;65.90;99535.28;5015890;28;20057;-62
2022/12/24 03:44:26;;;;;;;19.17;4.00;;;;;;;12.37;65.41;99536.22;5016266;28;20045;-62
2022/12/24 03:46:54;;;;;;;16.42;4.25;;;;;;;12.27;65.90;99541.47;5014621;28;20053;-62
2022/12/24 03:49:21;;;;;;;20.23;5.00;;;;;;;12.35;65.23;99537.75;5016549;28;20064;-62
2022/12/24 03:51:50;;;;;;;16.75;5.10;;;;;;;12.31;65.53;99536.81;5014734;28;20053;-62
2022/12/24 03:54:17;;;;;;;17.38;4.32;;;;;;;12.32;66.09;99539.22;5015827;28;20077;-62
2022/12/24 03:56:44;;;;;;;17.40;4.63;;;;;;;12.32;65.40;99530.03;5015854;28;20065;-62
2022/12/24 03:59:11;;;;;;;14.32;4.65;;;;;;;12.30;66.10;99526.78;5015653;28;20057;-63
2022/12/24 04:01:38;;;;;;;18.92;4.28;;;;;;;12.23;66.64;99537.75;5015054;28;20058;-62
2022/12/24 04:04:06;;;;;;;26.35;5.95;;;;;;;12.29;66.56;99545.53;5015680;28;20050;-62
2022/12/24 04:06:34;;;;;;;19.02;4.32;;;;;;;12.16;66.16;99547.50;5012386;28;20494;-62
2022/12/24 04:09:03;;;;;;;16.00;4.47;;;;;;;12.27;66.83;99544.25;5013776;28;20508;-62
2022/12/24 04:11:31;;;;;;;17.08;4.50;;;;;;;12.23;66.92;99551.69;5015640;28;20081;-62
2022/12/24 04:13:59;;;;;;;17.55;4.22;;;;;;;12.25;67.30;99541.81;5015176;28;20057;-62
2022/12/24 04:16:26;;;;;;;12.18;4.13;;;;;;;12.33;66.87;99545.66;5013753;28;20073;-62
2022/12/24 04:18:53;;;;;;;18.58;3.90;;;;;;;12.22;67.52;99536.94;5015184;28;20050;-62
2022/12/24 04:21:21;;;;;;;15.68;4.50;;;;;;;12.24;67.44;99551.34;5014653;28;20054;-62
2022/12/24 04:23:48;;;;;;;15.77;4.50;;;;;;;12.19;66.88;99557.16;5015119;28;20486;-63
2022/12/24 04:26:17;;;;;;;24.27;6.13;;;;;;;12.27;66.77;99555.41;5015398;28;20387;-62
2022/12/24 04:28:44;;;;;;;21.60;5.00;;;;;;;12.28;67.04;99552.25;5015400;28;20054;-60
2022/12/24 04:31:14;;;;;;;24.75;4.97;;;;;;;12.37;66.89;99561.34;5014939;28;20058;-60
2022/12/24 04:33:42;;;;;;;21.35;4.78;;;;;;;12.42;67.68;99557.50;5012841;28;20061;-62
2022/12/24 04:36:13;;;;;;;15.82;4.15;;;;;;;12.38;67.32;99571.34;5013672;28;20058;-60
2022/12/24 04:38:40;;;;;;;18.10;4.35;;;;;;;12.29;68.05;99564.25;5015025;28;20046;-62
2022/12/24 04:41:11;;;;;;;16.02;3.42;;;;;;;12.33;68.04;99556.81;5014767;28;20053;-60
2022/12/24 04:43:40;;;;;;;13.93;3.60;;;;;;;12.35;68.07;99574.03;5014801;28;20057;-60
2022/12/24 04:46:09;;;;;;;20.75;4.72;;;;;;;12.36;68.44;99565.28;5014913;28;20049;-62
2022/12/24 04:48:37;;;;;;;15.85;4.07;;;;;;;12.46;67.85;99574.38;5014840;28;20049;-62
2022/12/24 04:51:06;;;;;;;14.35;3.60;;;;;;;12.47;68.01;99582.41;5011844;28;20053;-60
2022/12/24 04:53:34;;;;;;;12.65;3.70;;;;;;;12.49;67.62;99576.47;5014780;28;20054;-61
2022/12/24 04:56:02;;;;;;;14.98;3.83;;;;;;;12.49;68.44;99571.69;5014459;28;20061;-61
2022/12/24 04:58:29;;;;;;;15.30;3.50;;;;;;;12.45;67.68;99569.94;5014741;28;20069;-61
2022/12/24 05:01:03;;;;;;;12.80;3.58;;;;;;;12.50;67.92;99573.34;5014502;28;20065;-62
2022/12/24 05:03:31;;;;;;;15.18;3.90;;;;;;;12.43;68.73;99572.28;5014402;28;20061;-61
2022/12/24 05:06:01;;;;;;;13.20;3.78;;;;;;;12.17;68.84;99574.25;5012685;28;20046;-62
2022/12/24 05:08:29;;;;;;;12.35;3.65;;;;;;;12.32;68.22;99591.47;5013287;28;20049;-62
2022/12/24 05:10:56;;;;;;;11.55;3.00;;;;;;;12.39;67.78;99577.78;5014185;28;20073;-61
2022/12/24 05:13:24;;;;;;;10.43;2.97;;;;;;;12.40;68.19;99579.38;5014672;28;20057;-61
2022/12/24 05:15:52;;;;;;;11.13;3.20;;;;;;;12.42;68.44;99582.66;5014041;28;20050;-62
2022/12/24 05:18:21;;;;;;;15.10;3.88;;;;;;;12.37;67.96;99580.91;5014408;28;20057;-62
2022/12/24 05:20:49;;;;;;;11.90;3.90;;;;;;;12.27;69.27;99580.56;5013134;28;20053;-61
2022/12/24 05:28:48;;;;;;;11.80;3.80;;;;;;;12.19;68.79;99597.03;5014266;28;20069;-61
2022/12/24 05:31:15;;;;;;;13.55;3.47;;;;;;;12.20;69.31;99600.69;5013960;28;20396;-61
2022/12/24 05:33:44;;;;;;;11.23;3.47;;;;;;;12.15;69.15;99601.69;5013630;28;20499;-61
2022/12/24 05:36:11;;;;;;;14.43;4.28;;;;;;;12.12;68.90;99594.03;5011819;28;20057;-61
2022/12/24 05:38:38;;;;;;;9.55;3.38;;;;;;;12.22;69.68;99591.94;5013463;28;20592;-61
2022/12/24 05:41:08;;;;;;;12.32;3.60;;;;;;;12.31;69.09;99598.25;5013795;28;20057;-61
2022/12/24 05:43:35;;;;;;;12.27;3.47;;;;;;;12.21;68.63;99598.69;5013695;28;20415;-61
2022/12/24 05:46:05;;;;;;;11.40;3.25;;;;;;;12.33;68.52;99605.09;5013622;28;20073;-61
2022/12/24 05:48:32;;;;;;;14.68;3.83;;;;;;;12.35;68.78;99615.94;5013990;28;20058;-61
2022/12/24 05:51:04;;;;;;;11.93;3.38;;;;;;;12.38;68.37;99606.84;5011633;28;20060;-61
2022/12/24 05:53:32;;;;;;;11.45;3.58;;;;;;;12.35;68.92;99618.72;5013611;28;20062;-61
2022/12/24 05:56:04;;;;;;;11.10;3.50;;;;;;;12.30;68.84;99610.56;5013197;28;20057;-61
2022/12/24 05:58:31;;;;;;;12.77;3.28;;;;;;;12.40;68.52;99624.06;5013314;28;20426;-61
2022/12/24 06:00:58;;;;;;;11.45;3.63;;;;;;;12.42;68.72;99621.75;5013259;28;20061;-62
2022/12/24 06:03:26;;;;;;;10.35;3.17;;;;;;;12.42;68.46;99613.38;5013421;28;20060;-61
2022/12/24 06:06:02;;;;;;;10.77;3.60;;;;;;;12.45;68.41;99628.59;5010716;28;20054;-61
2022/12/24 06:08:31;;;;;;;13.90;3.30;;;;;;;12.46;68.67;99613.50;5013643;28;20061;-61
2022/12/24 06:10:59;;;;;;;15.80;3.83;;;;;;;12.45;68.76;99625.81;5013129;28;20057;-61
2022/12/24 06:13:27;;;;;;;13.27;3.28;;;;;;;12.44;68.58;99619.41;5013005;28;20069;-60
2022/12/24 06:15:55;;;;;;;14.50;3.65;;;;;;;12.47;68.59;99631.88;5012985;28;20054;-61
2022/12/24 06:18:22;;;;;;;12.57;4.05;;;;;;;12.43;69.02;99628.13;5013182;28;20058;-61
2022/12/24 06:20:51;;;;;;;14.20;3.75;;;;;;;12.38;69.18;99626.41;5010782;28;20060;-61
2022/12/24 06:23:20;;;;;;;13.52;3.65;;;;;;;12.43;68.63;99640.16;5012052;28;20129;-61
2022/12/24 06:25:48;;;;;;;12.52;3.90;;;;;;;12.48;68.13;99634.31;5012933;28;20054;-61
2022/12/24 06:28:16;;;;;;;11.73;4.22;;;;;;;12.47;68.30;99648.63;5012933;28;20707;-61
2022/12/24 06:30:47;;;;;;;15.35;3.55;;;;;;;12.33;68.65;99640.59;5012939;28;20054;-61
2022/12/24 06:33:15;;;;;;;15.88;3.67;;;;;;;12.26;68.75;99640.34;5012332;28;20061;-62
2022/12/24 06:35:42;;;;;;;13.10;3.90;;;;;;;12.16;69.54;99655.56;4994548;28;20066;-61
2022/12/24 06:38:09;;;;;;;13.90;3.90;;;;;;;12.07;69.37;99655.63;4993029;28;20518;-61
2022/12/24 06:40:40;;;;;;;10.18;3.30;;;;;;;12.09;69.98;99658.91;4993045;28;20491;-61
2022/12/24 06:43:07;;;;;;;14.35;4.28;;;;;;;12.21;69.83;99654.53;4993021;28;20491;-61
2022/12/24 06:45:34;;;;;;;11.23;3.40;;;;;;;12.27;68.94;99650.34;4993346;28;20046;-61
2022/12/24 06:48:01;;;;;;;13.60;3.85;;;;;;;12.33;68.70;99662.94;4999760;28;20060;-61
2022/12/24 06:50:29;;;;;;;19.33;4.82;;;;;;;12.17;69.41;99660.78;4994856;28;20126;-62
2022/12/24 06:52:56;;;;;;;13.85;3.67;;;;;;;12.08;70.04;99667.63;4993502;28;20065;-61
2022/12/24 06:55:23;;;;;;;14.55;4.10;;;;;;;12.22;69.63;99670.94;4993177;28;20046;-61
2022/12/24 06:57:52;;;;;;;11.25;3.65;;;;;;;12.37;68.66;99684.22;4993377;28;20058;-61
2022/12/24 07:00:20;;;;;;;16.67;4.45;;;;;;;12.32;69.07;99684.44;4992804;28;20058;-61
2022/12/24 07:02:48;;;;;;;11.73;3.88;;;;;;;12.36;69.60;99690.16;4994430;28;20415;-61
2022/12/24 07:05:15;;;;;;;14.18;3.88;;;;;;;12.29;68.98;99684.34;5010417;28;20046;-61
2022/12/24 07:07:44;;;;;;;14.65;4.35;;;;;;;12.20;69.35;99720.72;5012846;28;20054;-61
2022/12/24 07:10:13;;;;;;;17.77;4.27;;;;;;;12.37;68.32;99692.59;5011953;28;20054;-61
2022/12/24 07:12:40;;;;;;;17.53;4.50;;;;;;;12.37;68.14;99698.19;5011924;28;20472;-61
2022/12/24 07:15:11;;;;;;;12.80;3.58;;;;;;;12.33;68.92;99700.03;5012196;28;20501;-61
2022/12/24 07:17:38;;;;;;;15.65;4.22;;;;;;;12.34;69.18;99698.06;5012767;28;20054;-61
2022/12/24 07:20:07;;;;;;;12.75;3.63;;;;;;;12.37;68.42;99702.97;5010947;28;20045;-61
2022/12/24 07:22:34;;;;;;;14.80;3.37;;;;;;;12.35;68.54;99700.53;5011287;28;20057;-61
2022/12/24 07:25:01;;;;;;;14.18;4.38;;;;;;;12.39;67.94;99703.44;5010528;28;20476;-62
2022/12/24 07:27:30;;;;;;;12.95;4.00;;;;;;;12.37;67.97;99703.78;4998408;28;20061;-59
2022/12/24 07:29:57;;;;;;;13.05;4.40;;;;;;;12.25;68.52;99708.53;5008359;28;20510;-62
2022/12/24 07:32:25;;;;;;;16.77;4.90;;;;;;;12.25;68.55;99712.13;5008911;28;20062;-62
2022/12/24 07:34:53;;;;;;;13.00;4.47;;;;;;;12.13;68.54;99712.88;5007663;28;20054;-59
2022/12/24 07:37:20;;;;;;;10.20;3.47;;;;;;;12.20;68.20;99715.16;4992507;28;20050;-61
2022/12/24 07:39:47;;;;;;;13.48;4.25;;;;;;;12.23;68.42;99731.19;5009232;28;20486;-61
2022/12/24 07:42:14;;;;;;;15.85;3.90;;;;;;;12.19;68.61;99719.88;5012154;28;20479;-62
2022/12/24 07:44:42;;;;;;;15.57;4.28;;;;;;;12.28;68.67;99724.56;5011088;28;20533;-59
2022/12/24 07:47:09;;;;;;;15.02;3.78;;;;;;;12.15;69.06;99732.09;5011699;28;20057;-61
2022/12/24 07:49:38;;;;;;;13.15;4.35;;;;;;;12.18;68.12;99732.22;5010226;28;20054;-61
2022/12/24 07:52:05;;;;;;;12.52;3.88;;;;;;;12.24;68.82;99724.47;5011327;28;20061;-60
2022/12/24 07:54:32;;;;;;;16.55;3.72;;;;;;;12.35;68.36;99727.63;5011932;28;20061;-60
2022/12/24 07:56:59;;;;;;;14.10;3.85;;;;;;;12.34;68.50;99734.38;5011916;28;20348;-60
2022/12/24 07:59:27;;;;;;;16.33;4.68;;;;;;;12.40;68.16;99738.56;5000567;28;20047;-60
2022/12/24 08:01:54;;;;;;;14.95;4.45;;;;;;;12.33;67.81;99727.97;5005606;28;20049;-60
2022/12/24 08:04:21;;;;;;;18.50;4.47;;;;;;;12.36;67.96;99744.03;5003418;28;20490;-60
2022/12/24 08:06:50;;;;;;;19.33;4.82;;;;;;;12.41;68.06;99748.59;5015584;28;20042;-61
2022/12/24 08:09:17;;;;;;;15.80;4.82;;;;;;;12.33;67.58;99746.72;5013733;28;20069;-61
2022/12/24 08:11:44;;;;;;;20.92;4.90;;;;;;;12.46;67.06;99762.34;5007072;28;20479;-61
2022/12/24 08:14:11;;;;;;;13.95;4.47;;;;;;;12.58;66.83;99756.78;5012406;28;20060;-61
2022/12/24 08:16:39;;;;;;;16.90;3.95;;;;;;;12.43;66.90;99768.63;4997372;28;20046;-61
2022/12/24 08:19:06;;;;;;;15.10;4.00;;;;;;;12.53;67.63;99776.53;5014346;28;20057;-60
2022/12/24 08:21:33;;;;;;;15.70;4.53;;;;;;;12.61;67.37;99777.63;5011681;28;20046;-61
2022/12/24 08:24:02;;;;;;;18.33;4.50;;;;;;;12.56;67.27;99789.03;5007070;28;20054;-61
2022/12/24 08:26:29;;;;;;;15.05;4.20;;;;;;;12.56;67.12;99783.44;5013268;28;20069;-61
2022/12/24 08:28:56;;;;;;;16.95;4.47;;;;;;;12.63;66.46;99780.06;5011718;28;20058;-60
2022/12/24 08:31:23;;;;;;;18.10;4.88;;;;;;;12.68;65.68;99783.47;5011298;28;20061;-64
2022/12/24 08:33:51;;;;;;;14.93;3.95;;;;;;;12.69;66.25;99792.66;5010217;28;20061;-64
2022/12/24 08:36:18;;;;;;;21.27;5.38;;;;;;;12.54;66.42;99808.13;5012387;28;20402;-64
2022/12/24 08:38:45;;;;;;;14.65;3.83;;;;;;;12.63;65.31;99810.81;5005946;28;20371;-64
2022/12/24 08:41:14;;;;;;;15.13;4.32;;;;;;;12.65;65.72;99809.31;5013198;28;20053;-64
2022/12/24 08:43:41;;;;;;;17.33;4.72;;;;;;;12.64;66.00;99818.84;5014213;28;20510;-64
2022/12/24 08:46:09;;;;;;;12.77;4.05;;;;;;;12.61;65.98;99813.94;5011371;28;20045;-64
2022/12/24 08:48:36;;;;;;;15.20;4.25;;;;;;;12.47;65.59;99830.19;5009725;28;20053;-64
2022/12/24 08:51:07;;;;;;;17.20;5.38;;;;;;;12.43;66.06;99830.06;5014217;28;20054;-64
2022/12/24 08:53:34;;;;;;;16.42;5.13;;;;;;;12.52;65.41;99833.59;5012657;28;20060;-64
2022/12/24 08:56:02;;;;;;;15.30;4.53;;;;;;;12.58;65.83;99828.63;5013162;28;20474;-64
2022/12/24 08:58:31;;;;;;;16.60;4.30;;;;;;;12.53;65.98;99828.81;5010496;28;20073;-64
2022/12/24 09:00:59;;;;;;;16.45;4.10;;;;;;;12.62;65.52;99820.34;5011769;28;20374;-64
2022/12/24 09:03:26;;;;;;;18.88;4.43;;;;;;;12.62;65.73;99837.94;5009512;28;20053;-64
2022/12/24 09:05:54;;;;;;;18.92;4.97;;;;;;;12.63;65.42;99847.94;5011412;28;20049;-64
2022/12/24 09:08:21;;;;;;;14.98;4.55;;;;;;;12.71;65.39;99846.22;5007160;28;20219;-63
2022/12/24 09:10:48;;;;;;;14.63;4.28;;;;;;;12.81;65.21;99862.56;5004226;28;20046;-64
2022/12/24 09:13:15;;;;;;;19.45;5.43;;;;;;;12.76;64.88;99848.81;4998541;28;20046;-61
2022/12/24 09:15:53;;;;;;;18.48;5.18;;;;;;;12.89;64.96;99856.06;5019568;28;20061;-61
2022/12/24 09:18:20;;;;;;;17.90;4.57;;;;;;;12.93;65.12;99857.00;5009089;28;20050;-61
2022/12/24 09:20:47;;;;;;;20.85;5.45;;;;;;;12.91;64.78;99867.69;5009195;28;20046;-62
2022/12/24 09:23:14;;;;;;;13.82;4.60;;;;;;;13.02;64.94;99861.66;5012096;28;20054;-61
2022/12/24 09:25:42;;;;;;;20.65;6.05;;;;;;;13.04;63.62;99878.91;5011242;28;20061;-62
2022/12/24 09:28:10;;;;;;;11.77;3.67;;;;;;;13.29;64.33;99869.47;5008835;28;20407;-61
2022/12/24 09:30:37;;;;;;;16.30;4.60;;;;;;;13.38;63.88;99875.75;5010419;28;20054;-63
2022/12/24 09:33:06;;;;;;;17.85;4.53;;;;;;;13.54;63.75;99883.47;5012282;28;20062;-62
2022/12/24 09:35:34;;;;;;;23.25;6.03;;;;;;;13.70;62.85;99892.78;5006880;28;20050;-62
2022/12/24 09:38:02;;;;;;;15.77;5.20;;;;;;;14.06;60.86;99885.53;5012958;28;20050;-62
2022/12/24 09:40:36;;;;;;;19.02;4.10;;;;;;;14.13;60.62;99884.94;5008384;28;20112;-62
2022/12/24 09:43:12;;;;;;;17.08;4.45;;;;;;;14.11;60.29;99902.13;5009092;28;20422;-60
2022/12/24 09:45:45;;;;;;;20.90;5.22;;;;;;;14.17;61.40;99911.91;5003793;28;20057;-60
2022/12/24 09:48:18;;;;;;;17.23;5.00;;;;;;;14.19;61.35;99894.72;5010391;28;20050;-61
2022/12/24 09:50:53;;;;;;;15.50;4.65;;;;;;;14.20;61.15;99911.19;5013752;28;20054;-60
2022/12/24 09:53:24;;;;;;;18.67;5.30;;;;;;;14.20;61.22;99897.19;5011461;28;20058;-60
2022/12/24 09:55:56;;;;;;;20.73;4.90;;;;;;;14.38;60.09;99905.31;5012292;28;20072;-61
2022/12/24 09:58:27;;;;;;;18.75;4.40;;;;;;;14.37;60.56;99904.50;5012890;28;20054;-61
2022/12/24 10:00:56;;;;;;;14.15;4.90;;;;;;;14.50;60.16;99907.28;5013491;28;20053;-61
2022/12/24 10:03:25;;;;;;;14.47;4.67;;;;;;;14.59;60.21;99917.22;5010399;28;20048;-61
2022/12/24 10:06:04;;;;;;;14.83;4.37;;;;;;;14.86;58.77;99928.78;5011868;28;20058;-61
2022/12/24 10:08:42;;;;;;;20.70;5.47;;;;;;;14.84;58.17;99921.91;5013219;28;20472;-61
2022/12/24 10:11:19;;;;;;;14.63;4.70;;;;;;;14.80;59.41;99930.19;5011881;28;20383;-61
2022/12/24 10:14:00;;;;;;;14.18;4.32;;;;;;;14.41;59.05;99921.44;4997800;28;20054;-61
2022/12/24 10:16:36;;;;;;;16.52;4.13;;;;;;;14.54;59.69;99919.41;5009621;28;20053;-61
2022/12/24 10:19:14;;;;;;;15.23;4.93;;;;;;;14.55;59.00;99926.63;5001535;28;20049;-61
2022/12/24 10:21:53;;;;;;;20.95;5.82;;;;;;;14.30;59.74;99923.06;5012592;28;20058;-61
2022/12/24 10:24:24;;;;;;;18.45;4.45;;;;;;;14.27;59.45;99930.19;4993043;28;20058;-61
2022/12/24 10:26:57;;;;;;;13.02;4.43;;;;;;;14.26;59.89;99925.78;4993255;28;20054;-61
2022/12/24 10:29:29;;;;;;;17.60;5.20;;;;;;;14.26;60.04;99924.94;4992678;28;20522;-61
2022/12/24 10:32:10;;;;;;;25.77;4.75;;;;;;;14.11;60.20;99927.31;5003088;28;20050;-61
2022/12/24 10:34:43;;;;;;;12.75;4.00;;;;;;;14.24;58.89;99938.47;5012639;28;20057;-61
2022/12/24 10:37:16;;;;;;;14.95;4.22;;;;;;;14.19;60.54;99943.19;5012499;28;20399;-62
2022/12/24 10:39:43;;;;;;;15.57;4.13;;;;;;;14.46;58.53;99935.19;5012716;28;20054;-61
2022/12/24 10:42:13;;;;;;;20.55;4.40;;;;;;;14.56;58.93;99943.13;5012617;28;20049;-61
2022/12/24 10:44:40;;;;;;;16.83;3.72;;;;;;;14.55;59.10;99935.91;5012477;28;20057;-61
2022/12/24 10:47:10;;;;;;;15.68;4.25;;;;;;;14.48;59.73;99944.06;5010633;28;20050;-61
2022/12/24 10:49:44;;;;;;;14.65;4.55;;;;;;;14.89;57.71;99936.50;5009258;28;20050;-61
2022/12/24 10:52:14;;;;;;;12.77;4.57;;;;;;;15.82;56.33;99936.19;5005162;28;20145;-62
2022/12/24 10:54:56;;;;;;;;;;;;;;;15.02;57.79;99942.84;5004727;28;20053;-60
2022/12/24 10:57:25;;;;;;;16.17;4.70;;;;;;;15.14;58.18;99942.81;5007953;28;19925;-61
2022/12/24 10:59:55;;;;;;;15.82;5.07;;;;;;;15.64;56.01;99934.88;5004380;28;20065;-60
2022/12/24 11:02:28;;;;;;;15.07;4.47;;;;;;;15.54;56.83;99935.41;5008497;28;20046;-60
2022/12/24 11:04:58;;;;;;;18.42;5.38;;;;;;;15.70;56.01;99933.44;5004113;28;20050;-61
2022/12/24 11:07:25;;;;;;;15.23;4.32;;;;;;;15.73;55.70;99923.53;5003285;28;20050;-61
2022/12/24 11:09:57;;;;;;;16.98;5.53;;;;;;;15.26;56.75;99924.25;5002345;28;20506;-61
2022/12/24 11:12:28;;;;;;;20.88;5.55;;;;;;;15.07;56.68;99924.94;5012117;28;20371;-61
2022/12/24 11:15:04;;;;;;;18.17;5.97;;;;;;;15.87;55.48;99923.03;5011463;28;20050;-61
2022/12/24 11:17:31;;;;;;;13.00;5.60;;;;;;;18.72;48.84;99919.56;5011931;28;20438;-60
2022/12/24 11:20:02;;;;;;;18.67;6.68;;;;;;;20.98;44.77;99918.69;5012126;28;20058;-61
2022/12/24 11:22:32;;;;;;;13.38;5.15;;;;;;;20.99;43.09;99906.94;5012150;28;20070;-61
2022/12/24 11:25:03;;;;;;;16.63;5.63;;;;;;;22.60;40.60;99911.06;5011735;28;20057;-61
2022/12/24 11:27:34;;;;;;;13.75;3.90;;;;;;;20.47;43.18;99914.75;5010674;28;20045;-59
2022/12/24 11:30:29;;;;;;;20.13;5.10;;;;;;;19.47;45.03;99914.78;5011692;28;20058;-58
2022/12/24 11:33:18;;;;;;;14.68;4.38;;;;;;;18.35;47.02;99897.69;4998288;28;20069;-61
2022/12/24 11:35:53;;;;;;;16.98;4.65;;;;;;;17.74;48.95;99903.19;4994468;28;20054;-61
2022/12/24 11:38:23;;;;;;;15.93;4.13;;;;;;;17.35;50.11;99913.78;4996041;28;20050;-60
2022/12/24 11:40:59;;;;;;;17.73;5.40;;;;;;;17.09;51.19;99914.50;4996330;28;20066;-59
2022/12/24 11:43:43;;;;;;;16.13;3.95;;;;;;;16.50;52.11;99922.91;4996116;28;20051;-59
2022/12/24 11:46:16;;;;;;;14.25;4.75;;;;;;;16.11;52.68;99916.41;5015132;28;20057;-59
2022/12/24 11:48:43;;;;;;;22.98;6.50;;;;;;;15.89;53.41;99910.25;5014881;28;20635;-59